Flight Track Log - Related Links

Times and Time Zones

All times are in EDT time to prevent confusion due to time zone crossing. See the JZA7826 flight status page for this flight to view local times or setup timezone preferences in your user account.

Time Position Orientation Groundspeed Altitude Reporting Facility
EDT Latitude Longitude Course Direction KTS MPH feet Rate Location/Type
Wed 12:28:30 PM 48.2667 -81.1833 162° South 270 311 11,000  Level Toronto Center
Wed 12:29:00 PM 48.0217 -81.6398 200° South  Level FlightAware
Wed 12:29:30 PM 48.1833 -81.1500 165° South 280 322 12,700  Level Toronto Center
Wed 12:30:00 PM 47.9447 -81.6012 161° South  Level Estimated
Wed 12:30:30 PM 48.1167 -81.1500 180° South 290 334 14,700  Level Toronto Center
Wed 12:31:00 PM 47.8677 -81.5626 161° South  Level Estimated
Wed 12:31:30 PM 48.0333 -81.1333 172° South 300 345 14,800  Level Toronto Center
Wed 12:32:00 PM 47.7906 -81.5242 161° South  Level Estimated
Wed 12:32:30 PM 47.9333 -81.1000 167° South 320 368 14,900  Level Toronto Center
Wed 12:33:00 PM 47.7144 -81.4863 162° South  Level Estimated
Wed 12:33:30 PM 47.8500 -81.0667 165° South 320 368 14,800  Level Toronto Center
Wed 12:34:00 PM 47.6381 -81.4485 162° South  Level Estimated
Wed 12:34:30 PM 47.7500 -81.0500 174° South 320 368 14,800  Level Toronto Center
Wed 12:35:30 PM 47.6667 -81.0167 165° South 320 368 14,900 50 Climbing Toronto Center
Wed 12:36:30 PM 47.5833 -81.0167 180° South 320 368 14,900  Level Toronto Center
Wed 12:37:30 PM 47.5000 -80.9833 165° South 320 368 14,900  Level Toronto Center
Wed 12:38:30 PM 47.4000 -80.9667 174° South 320 368 14,900  Level Toronto Center
Wed 12:39:30 PM 47.3167 -80.9333 165° South 320 368 14,900  Level Toronto Center
Wed 12:40:30 PM 47.2333 -80.9000 165° South 300 345 14,900  Level Toronto Center
Wed 12:41:30 PM 47.1667 -80.8833 170° South 300 345 14,900  Level Toronto Center
Wed 12:42:30 PM 47.0833 -80.8833 180° South 300 345 14,900  Level Toronto Center
Wed 12:43:30 PM 47.0000 -80.8500 165° South 310 357 14,900  Level Toronto Center
Wed 12:44:30 PM 46.9167 -80.8333 172° South 310 357 14,900  Level Toronto Center
Wed 12:45:30 PM 46.8333 -80.8000 165° South 310 357 14,900  Level Toronto Center
Wed 12:46:30 PM 46.7500 -80.7667 165° South 300 345 14,900  Level Toronto Center
Wed 12:47:30 PM 46.6667 -80.7500 172° South 300 345 14,900  Level Toronto Center
Wed 12:48:30 PM 46.5833 -80.7167 165° South 300 345 14,900  Level Toronto Center
Wed 12:49:30 PM 46.5000 -80.7167 180° South 300 345 14,900  Level Toronto Center
Wed 12:50:30 PM 46.4167 -80.7000 172° South 300 345 14,900  Level Toronto Center
Wed 12:51:30 PM 46.3333 -80.6667 165° South 310 357 14,900  Level Toronto Center
Wed 12:52:30 PM 46.2500 -80.6500 172° South 310 357 14,900  Level Toronto Center
Wed 12:53:30 PM 46.1667 -80.6167 165° South 310 357 14,900  Level Toronto Center
Wed 12:54:30 PM 46.0833 -80.6167 180° South 310 357 14,900 50 Level Toronto Center
Wed 12:55:30 PM 46.0000 -80.6000 172° South 310 357 15,000 50 Climbing Toronto Center
Wed 12:56:30 PM 45.9167 -80.5667 164° South 310 357 15,000  Level Toronto Center
Wed 12:57:30 PM 45.8333 -80.5333 164° South 310 357 15,000  Level Toronto Center
Wed 12:58:30 PM 45.7500 -80.5167 172° South 310 357 15,000  Level Toronto Center
Wed 12:59:30 PM 45.6667 -80.4833 164° South 300 345 15,000  Level Toronto Center
Wed 01:00:30 PM 45.5833 -80.4833 180° South 300 345 15,000  Level Toronto Center
Wed 01:01:30 PM 45.5000 -80.4667 172° South 300 345 15,000  Level Toronto Center
Wed 01:02:30 PM 45.4167 -80.4333 164° South 300 345 15,000  Level Toronto Center
Wed 01:03:30 PM 45.3333 -80.4167 172° South 300 345 15,000  Level Toronto Center
Wed 01:04:30 PM 45.2500 -80.3833 164° South 300 345 15,000  Level Toronto Center
Wed 01:05:30 PM 45.1667 -80.3833 180° South 290 334 15,000  Level Toronto Center
Wed 01:06:30 PM 45.0833 -80.3667 172° South 300 345 15,000  Level Toronto Center
Wed 01:07:30 PM 45.0167 -80.3333 161° South 300 345 15,000  Level Toronto Center
Wed 01:08:30 PM 44.9333 -80.3167 172° South 290 334 15,000  Level Toronto Center
Wed 01:09:30 PM 44.8500 -80.3167 180° South 290 334 15,000  Level Toronto Center
Wed 01:10:30 PM 44.7667 -80.2833 164° South 290 334 15,000  Level Toronto Center
Wed 01:11:30 PM 44.6833 -80.2667 172° South 300 345 15,000  Level Toronto Center
Wed 01:12:30 PM 44.6000 -80.2333 164° South 300 345 15,000 -250 Level Toronto Center
Wed 01:13:30 PM 44.5167 -80.2167 172° South 310 357 14,500 -550 Descending Toronto Center
Wed 01:14:30 PM 44.4333 -80.2000 172° South 310 357 13,900 -700 Descending Toronto Center
Wed 01:15:30 PM 44.3500 -80.2000 180° South 310 357 13,100 -750 Descending Toronto Center
Wed 01:16:30 PM 44.2667 -80.1667 164° South 300 345 12,400 -700 Descending Toronto Center
Wed 01:17:30 PM 44.1833 -80.1500 172° South 290 334 11,700 -650 Descending Toronto Center
Wed 01:18:30 PM 44.1167 -80.1167 160° South 290 334 11,100 -650 Descending Toronto Center
Wed 01:19:30 PM 44.0500 -80.0333 138° Southeast 300 345 10,400 -750 Descending Toronto Center
Wed 01:20:30 PM 43.9833 -79.9500 138° Southeast 300 345 9,600 -750 Descending Toronto Center
Wed 01:21:30 PM 43.9167 -79.9167 160° South 270 311 8,900 -700 Descending Toronto Center
Wed 01:22:30 PM 43.8667 -79.8333 130° Southeast 260 299 8,200 -450 Descending Toronto Center
Wed 01:23:30 PM 43.8167 -79.7667 136° Southeast 250 288 8,000 -200 Descending Toronto Center
Wed 01:24:30 PM 43.7500 -79.7333 160° South 250 288 7,800 -650 Descending Toronto Center
Wed 01:25:30 PM 43.7000 -79.7500 194° South 210 242 6,700 -1,200 Descending Toronto Center
Wed 01:26:30 PM 43.6500 -79.8000 216° Southwest 190 219 5,400 -1,250 Descending Toronto Center
Wed 01:27:30 PM 43.6167 -79.8333 216° Southwest 170 196 4,200 -1,050 Descending Toronto Center
Wed 01:28:30 PM 43.5833 -79.8333 180° South 170 196 3,300 -600 Descending Toronto Center
Wed 01:29:30 PM 43.5500 -79.8000 144° Southeast 180 207 3,000 -150 Descending Toronto Center
Wed 01:30:30 PM 43.5667 -79.7167 75° East 200 230 3,000 -550 Level Toronto Center
Wed 01:31:30 PM 43.6000 -79.6833 36° Northeast 200 230 1,900 -900 Descending Toronto Center
Wed 01:32:30 PM 43.6333 -79.6333 47° Northeast 160 184 1,200 -650 Descending Toronto Center
Wed 01:33:30 PM 43.6500 -79.6167 36° Northeast 110 127 600 -600 Descending Toronto Center

Login

Don't have an account? Register now (free) for customized features, flight alerts, and more!